createdAt,value
2019-02-24T07:00:14.046Z,14.17
2019-02-24T07:03:29.804Z,13.00
2019-02-24T07:48:34.249Z,8.77
2019-02-24T08:01:31.201Z,10.03
2019-02-24T08:08:06.929Z,17.90
2019-02-24T08:18:17.742Z,8.50
2019-02-24T08:30:52.115Z,14.87
2019-02-24T08:51:13.228Z,15.37
2019-02-24T09:01:47.881Z,13.70
2019-02-24T09:17:13.096Z,9.10
2019-02-24T09:20:03.379Z,12.50
2019-02-24T09:23:07.450Z,7.43
2019-02-24T09:26:09.754Z,8.30
2019-02-24T09:28:59.918Z,10.33
2019-02-24T09:31:43.915Z,9.03
2019-02-24T09:34:20.065Z,12.03
2019-02-24T09:37:23.740Z,10.77
2019-02-24T09:40:14.630Z,9.73
2019-02-24T09:42:45.458Z,9.97
2019-02-24T09:45:15.389Z,14.10
2019-02-24T09:50:50.136Z,14.47
2019-02-24T09:53:39.128Z,10.57
2019-02-24T09:56:11.414Z,11.83
2019-02-24T09:58:43.921Z,11.03
2019-02-24T10:01:16.245Z,11.53
2019-02-24T10:03:48.186Z,12.33
2019-02-24T10:06:22.603Z,14.33
2019-02-24T10:12:02.131Z,11.10
2019-02-24T10:14:51.605Z,10.83
2019-02-24T10:20:36.864Z,10.77
2019-02-24T10:23:16.685Z,11.97
2019-02-24T10:25:46.011Z,13.80
2019-02-24T10:28:18.083Z,14.07
2019-02-24T10:30:48.621Z,10.63
2019-02-24T10:33:18.928Z,15.50
2019-02-24T10:38:34.875Z,16.63
2019-02-24T10:41:26.362Z,14.17
2019-02-24T10:43:58.043Z,18.80
2019-02-24T10:49:30.435Z,16.77
2019-02-24T10:52:00.395Z,11.27
2019-02-24T10:54:31.276Z,11.93
2019-02-24T10:57:13.653Z,12.93
2019-02-24T10:59:43.568Z,15.57
2019-02-24T11:02:15.137Z,12.47
2019-02-24T11:04:49.025Z,12.47
2019-02-24T11:07:40.021Z,12.10
2019-02-24T11:10:12.029Z,13.43
2019-02-24T11:12:41.412Z,14.73
2019-02-24T11:15:13.803Z,17.03
2019-02-24T11:17:45.277Z,14.47
2019-02-24T11:20:18.807Z,13.30
2019-02-24T11:22:50.018Z,14.37
2019-02-24T11:25:20.416Z,17.13
2019-02-24T11:27:50.598Z,13.10
2019-02-24T11:30:23.644Z,15.63
2019-02-24T11:32:55.787Z,15.83
2019-02-24T11:35:26.617Z,19.57
2019-02-24T11:38:19.271Z,17.63
2019-02-24T11:40:49.839Z,13.53
2019-02-24T11:43:23.703Z,15.97
2019-02-24T11:45:54.159Z,13.40
2019-02-24T11:48:26.929Z,10.70
2019-02-24T11:50:56.247Z,12.00
2019-02-24T11:53:25.576Z,13.63
2019-02-24T11:55:54.884Z,13.93
2019-02-24T11:58:43.579Z,16.40
2019-02-24T12:01:12.890Z,15.33
2019-02-24T12:03:42.245Z,13.67
2019-02-24T12:06:11.553Z,13.70
2019-02-24T12:08:40.902Z,19.03
2019-02-24T12:11:10.228Z,11.33
2019-02-24T12:13:39.609Z,13.00
2019-02-24T12:16:08.919Z,15.27
2019-02-24T12:18:38.291Z,12.20
2019-02-24T12:21:07.610Z,13.10
2019-02-24T12:23:36.921Z,12.50
2019-02-24T12:26:06.254Z,10.80
2019-02-24T12:28:35.570Z,14.90
2019-02-24T12:31:05.044Z,16.27
2019-02-24T12:33:34.370Z,15.00
2019-02-24T12:36:03.677Z,14.13
2019-02-24T12:38:33.018Z,13.63
2019-02-24T12:41:02.346Z,12.60
2019-02-24T12:43:31.688Z,12.77
2019-02-24T12:46:00.991Z,13.80
2019-02-24T12:48:30.338Z,11.87
2019-02-24T12:50:59.671Z,13.00
2019-02-24T12:53:29.040Z,13.33
2019-02-24T12:55:58.367Z,13.10
2019-02-24T12:58:27.676Z,11.43
2019-02-24T13:00:56.978Z,14.70
2019-02-24T13:03:26.327Z,15.63
2019-02-24T13:05:55.714Z,12.63
2019-02-24T13:08:25.036Z,10.23
2019-02-24T13:10:54.476Z,10.63
2019-02-24T13:13:23.825Z,14.80
2019-02-24T13:15:53.136Z,23.53
2019-02-24T13:18:22.446Z,20.43
2019-02-24T13:20:51.774Z,26.97
2019-02-24T13:23:21.081Z,19.57
2019-02-24T13:25:50.414Z,19.30
2019-02-24T13:28:19.743Z,20.07
2019-02-24T13:30:49.088Z,18.57
2019-02-24T13:33:18.427Z,20.00
2019-02-24T13:35:47.765Z,17.33
2019-02-24T13:41:01.195Z,21.20
2019-02-24T13:43:30.583Z,17.07
2019-02-24T13:45:59.949Z,17.83
2019-02-24T13:48:29.270Z,14.20
2019-02-24T13:50:58.579Z,16.50
2019-02-24T13:53:27.888Z,20.53
2019-02-24T13:55:57.202Z,17.77
2019-02-24T13:58:26.523Z,25.67
2019-02-24T14:00:55.874Z,15.73
2019-02-24T14:03:25.201Z,22.80
2019-02-24T14:05:54.573Z,18.57
2019-02-24T14:08:23.950Z,18.93
2019-02-24T14:10:53.306Z,15.53
2019-02-24T14:13:22.823Z,16.93
2019-02-24T14:15:52.124Z,18.03
2019-02-24T14:18:21.510Z,16.90
2019-02-24T14:20:51.185Z,24.23
2019-02-24T14:23:20.524Z,17.07
2019-02-24T14:25:49.875Z,17.53
2019-02-24T14:28:19.200Z,14.90
2019-02-24T14:30:48.539Z,21.17
2019-02-24T14:33:17.898Z,23.17
2019-02-24T14:35:47.243Z,30.03
2019-02-24T14:38:16.564Z,21.63
2019-02-24T14:40:45.892Z,25.23
2019-02-24T14:43:15.195Z,18.00
2019-02-24T14:45:49.617Z,27.57
2019-02-24T14:48:33.724Z,18.57
2019-02-24T14:51:03.075Z,15.07
2019-02-24T14:53:32.392Z,27.73
2019-02-24T14:56:01.737Z,27.90
2019-02-24T14:58:31.053Z,27.00
2019-02-24T15:01:00.845Z,29.77
2019-02-24T15:03:49.631Z,24.10
2019-02-24T15:06:18.941Z,23.73
2019-02-24T15:08:48.256Z,23.90
2019-02-24T15:11:17.675Z,22.10
2019-02-24T15:13:46.978Z,26.03
2019-02-24T15:16:16.286Z,24.60
2019-02-24T15:18:45.623Z,28.57
2019-02-24T15:21:14.929Z,26.17
2019-02-24T15:23:44.261Z,31.73
2019-02-24T15:26:13.599Z,30.57
2019-02-24T15:28:42.907Z,29.53
2019-02-24T15:31:31.582Z,25.80
2019-02-24T15:34:00.913Z,34.80
2019-02-24T15:36:30.218Z,30.27
2019-02-24T15:38:59.527Z,36.13
2019-02-24T15:41:29.955Z,36.20
2019-02-24T15:44:18.092Z,36.03
2019-02-24T15:46:47.399Z,38.67
2019-02-24T15:49:16.715Z,57.07
2019-02-24T15:51:46.041Z,36.87
2019-02-24T15:54:15.750Z,30.87
2019-02-24T15:56:45.082Z,30.20
2019-02-24T15:59:14.467Z,31.77
2019-02-24T16:01:43.786Z,31.30
2019-02-24T16:04:13.112Z,32.47
2019-02-24T16:06:42.691Z,28.30
2019-02-24T16:09:12.123Z,38.40
2019-02-24T16:11:53.749Z,34.43
2019-02-24T16:14:23.064Z,31.07
2019-02-24T16:16:52.483Z,32.80
2019-02-24T16:19:21.795Z,37.07
2019-02-24T16:21:51.187Z,39.40
2019-02-24T16:24:20.496Z,35.40
2019-02-24T16:26:49.806Z,36.33
2019-02-24T16:29:19.131Z,37.20
2019-02-24T16:31:48.450Z,34.60
2019-02-24T16:34:17.769Z,27.03
2019-02-24T16:36:47.082Z,25.03
2019-02-24T16:39:16.402Z,22.03
2019-02-24T16:41:45.723Z,26.83
2019-02-24T16:44:15.037Z,23.77
2019-02-24T16:46:44.345Z,36.57
2019-02-24T16:49:13.694Z,25.77
2019-02-24T16:51:43.088Z,25.17
2019-02-24T16:54:12.392Z,34.87
2019-02-24T16:56:41.697Z,33.23
2019-02-24T16:59:11.017Z,25.23
2019-02-24T17:01:40.341Z,26.40
2019-02-24T17:04:09.660Z,19.97
2019-02-24T17:06:39.041Z,22.30
2019-02-24T17:09:08.563Z,22.17
2019-02-24T17:11:37.940Z,18.83
2019-02-24T17:14:07.280Z,18.60
2019-02-24T17:16:36.595Z,22.67
2019-02-24T17:19:05.936Z,17.20
2019-02-24T17:21:35.301Z,21.03
2019-02-24T17:24:04.632Z,14.80
2019-02-24T17:26:34.048Z,17.37
2019-02-24T17:29:03.401Z,22.33
2019-02-24T17:31:32.799Z,22.43
2019-02-24T17:34:02.156Z,22.90
2019-02-24T17:36:31.504Z,21.90
2019-02-24T17:39:00.821Z,22.03
2019-02-24T17:41:30.149Z,22.53
2019-02-24T17:43:59.488Z,19.73
2019-02-24T17:46:28.784Z,22.80
2019-02-24T17:48:58.097Z,23.27
2019-02-24T17:51:27.412Z,21.80
2019-02-24T17:53:56.724Z,21.43
2019-02-24T17:56:26.042Z,35.77
2019-02-24T17:58:55.397Z,41.57
2019-02-24T18:01:24.825Z,84.53
2019-02-24T18:03:54.678Z,67.37
2019-02-24T18:06:24.456Z,110.77
2019-02-24T18:08:54.403Z,148.33
2019-02-24T18:11:23.852Z,84.40
2019-02-24T18:13:53.205Z,47.87
2019-02-24T18:16:22.528Z,38.03
2019-02-24T18:18:51.853Z,50.20
2019-02-24T18:21:21.180Z,47.60
2019-02-24T18:23:50.523Z,38.57
2019-02-24T18:26:19.857Z,39.73
2019-02-24T18:28:49.220Z,41.80
2019-02-24T18:31:18.540Z,38.80
2019-02-24T18:33:48.629Z,58.40
2019-02-24T18:36:18.052Z,42.23
2019-02-24T18:38:47.395Z,34.03
2019-02-24T18:41:16.716Z,40.07
2019-02-24T18:43:46.055Z,43.27
2019-02-24T18:46:15.457Z,46.97
2019-02-24T18:48:44.761Z,29.97
2019-02-24T18:51:14.079Z,26.73
2019-02-24T18:53:43.417Z,26.87
2019-02-24T18:56:12.731Z,22.10
2019-02-24T18:58:42.101Z,21.70
2019-02-24T19:01:11.378Z,29.37
2019-02-24T19:03:41.791Z,23.67
2019-02-24T19:06:11.271Z,23.50
2019-02-24T19:08:40.683Z,21.40
2019-02-24T19:11:10.103Z,19.30
2019-02-24T19:13:39.420Z,23.40
2019-02-24T19:16:08.750Z,20.20
2019-02-24T19:18:38.061Z,19.20
2019-02-24T19:21:07.383Z,15.90
2019-02-24T19:23:36.682Z,17.27
2019-02-24T19:26:05.994Z,20.30
2019-02-24T19:28:35.297Z,27.73
2019-02-24T19:31:04.617Z,16.27
2019-02-24T19:33:34.037Z,15.87
2019-02-24T19:36:03.345Z,17.30
2019-02-24T19:38:32.665Z,16.40
2019-02-24T19:41:01.990Z,14.80
2019-02-24T19:43:31.303Z,20.13
2019-02-24T19:46:00.761Z,16.57
2019-02-24T19:48:30.082Z,17.43
2019-02-24T19:50:59.395Z,18.13
2019-02-24T19:53:28.693Z,20.23
2019-02-24T19:55:58.002Z,16.87
2019-02-24T19:58:27.323Z,17.13
2019-02-24T20:00:56.631Z,17.23
2019-02-24T20:03:25.942Z,17.07
2019-02-24T20:05:55.289Z,15.97
2019-02-24T20:08:24.583Z,13.00
2019-02-24T20:11:12.917Z,18.27
2019-02-24T20:13:42.226Z,18.40
2019-02-24T20:16:12.531Z,17.03
2019-02-24T20:18:41.852Z,16.47
2019-02-24T20:21:11.156Z,17.70
2019-02-24T20:23:40.496Z,17.83
2019-02-24T20:26:10.048Z,19.03
2019-02-24T20:28:40.080Z,19.53
2019-02-24T20:31:28.560Z,16.17
2019-02-24T20:33:57.879Z,21.87
2019-02-24T20:36:27.185Z,17.47
2019-02-24T20:38:56.504Z,16.27
2019-02-24T20:41:25.821Z,19.83
2019-02-24T20:43:55.131Z,19.33
2019-02-24T20:46:24.459Z,17.30
2019-02-24T20:48:53.784Z,22.07
2019-02-24T20:51:23.089Z,21.70
2019-02-24T20:53:52.402Z,23.07
2019-02-24T20:56:21.708Z,18.90
2019-02-24T20:58:51.022Z,24.50
2019-02-24T21:01:20.325Z,20.87
2019-02-24T21:03:49.634Z,20.70
2019-02-24T21:06:18.954Z,15.90
2019-02-24T21:08:48.263Z,18.27
2019-02-24T21:11:17.597Z,17.23
2019-02-24T21:13:46.923Z,15.63
2019-02-24T21:16:16.231Z,12.07
2019-02-24T21:18:45.557Z,17.63
2019-02-24T21:21:14.883Z,20.17
2019-02-24T21:23:44.205Z,14.83
2019-02-24T21:26:13.546Z,22.37
2019-02-24T21:28:42.858Z,17.03
2019-02-24T21:31:12.188Z,20.13
2019-02-24T21:33:41.499Z,19.37
2019-02-24T21:36:10.971Z,20.10
2019-02-24T21:38:40.275Z,19.27
2019-02-24T21:41:09.683Z,22.20
2019-02-24T21:43:39.049Z,24.70
2019-02-24T21:46:08.363Z,22.73
2019-02-24T21:48:37.665Z,20.67
2019-02-24T21:51:06.985Z,19.50
2019-02-24T21:53:36.286Z,17.57
2019-02-24T21:56:05.603Z,16.00
2019-02-24T21:58:34.903Z,11.00
2019-02-24T22:04:06.929Z,11.37
2019-02-24T22:06:36.272Z,12.27
2019-02-24T22:09:08.626Z,14.67
2019-02-24T22:11:37.959Z,14.53
2019-02-24T22:14:07.263Z,11.37
2019-02-24T22:16:36.573Z,10.83
2019-02-24T22:19:05.875Z,9.47
2019-02-24T22:21:35.197Z,11.37
2019-02-24T22:24:04.507Z,9.63
2019-02-24T22:26:33.823Z,12.03
2019-02-24T22:29:03.121Z,13.43
2019-02-24T22:31:32.422Z,9.73
2019-02-24T22:34:01.751Z,10.70
2019-02-24T22:36:31.064Z,11.17
2019-02-24T22:39:00.366Z,11.53
2019-02-24T22:41:29.685Z,11.73
2019-02-24T22:43:58.998Z,9.30
2019-02-24T22:46:28.320Z,10.27
2019-02-24T22:48:57.627Z,10.43
2019-02-24T22:51:26.926Z,10.90
2019-02-24T22:53:56.225Z,13.83
2019-02-24T22:56:25.535Z,13.67
2019-02-24T22:58:54.850Z,11.80
2019-02-24T23:04:20.378Z,14.40
2019-02-24T23:06:49.695Z,10.47
2019-02-24T23:09:19.997Z,12.77
2019-02-24T23:11:49.316Z,13.67
2019-02-24T23:14:18.837Z,11.73
2019-02-24T23:16:48.158Z,12.33
2019-02-24T23:19:17.713Z,10.07
2019-02-24T23:21:47.023Z,15.30
2019-02-24T23:24:16.351Z,14.80
2019-02-24T23:26:45.661Z,12.00
2019-02-24T23:29:14.971Z,14.97
2019-02-24T23:31:44.273Z,12.90
2019-02-24T23:34:13.582Z,8.97
2019-02-24T23:36:42.882Z,9.70
2019-02-24T23:39:16.664Z,12.27
2019-02-24T23:41:46.425Z,11.17
2019-02-24T23:44:15.734Z,10.63
2019-02-24T23:46:45.052Z,11.23
2019-02-24T23:49:14.368Z,13.83
2019-02-24T23:51:43.661Z,13.63
2019-02-24T23:54:12.969Z,14.00
2019-02-24T23:56:42.270Z,14.33
2019-02-24T23:59:11.574Z,11.03
